Time;durP1;ratioP1;P1;durP2;ratioP2;P2;SDS_P1;SDS_P2;PMS_P1;PMS_P2;Temp;Humidity;BMP_temperature;BMP_pressure;BME280_temperature;BME280_humidity;BME280_pressure;Samples;Min_cycle;Max_cycle;Signal;HPM_P1;HPM_P2
2023/04/11 00:00:33;;;;;;;;;;;15.80;70.70;;;;;;5055867;28;19909;-85
2023/04/11 00:03:01;;;;;;;;;;;15.80;70.70;;;;;;5055964;28;19909;-85
2023/04/11 00:05:27;;;;;;;;;;;15.80;70.80;;;;;;5054845;28;19944;-85
2023/04/11 00:07:53;;;;;;;;;;;15.80;70.90;;;;;;5056659;28;19920;-85
2023/04/11 00:10:19;;;;;;;;;;;15.80;70.90;;;;;;5055439;28;19917;-85
2023/04/11 00:12:44;;;;;;;;;;;15.80;70.90;;;;;;5055729;28;20298;-85
2023/04/11 00:15:10;;;;;;;;;;;15.80;71.00;;;;;;5055055;28;19920;-85
2023/04/11 00:17:36;;;;;;;;;;;15.80;71.10;;;;;;5054461;28;19982;-85
2023/04/11 00:20:06;;;;;;;;;;;15.80;71.10;;;;;;5052792;28;19916;-85
2023/04/11 00:22:33;;;;;;;;;;;15.80;71.20;;;;;;5052362;28;20249;-85
2023/04/11 00:24:58;;;;;;;;;;;15.80;71.30;;;;;;5051459;28;19908;-84
2023/04/11 00:27:24;;;;;;;;;;;15.80;71.40;;;;;;5054177;28;19962;-85
2023/04/11 00:29:51;;;;;;;;;;;15.80;71.40;;;;;;5054986;28;19946;-85
2023/04/11 00:32:17;;;;;;;;;;;15.80;71.40;;;;;;5054688;28;19956;-85
2023/04/11 00:34:43;;;;;;;;;;;15.70;71.40;;;;;;5054351;28;19963;-85
2023/04/11 00:37:08;;;;;;;;;;;15.70;71.50;;;;;;5054268;28;20095;-85
2023/04/11 00:39:34;;;;;;;;;;;15.70;71.60;;;;;;5053600;28;19959;-85
2023/04/11 00:42:08;;;;;;;;;;;15.70;71.60;;;;;;5054591;28;19940;-85
2023/04/11 00:44:35;;;;;;;;;;;15.70;71.60;;;;;;5053490;28;19909;-85
2023/04/11 00:47:01;;;;;;;;;;;15.70;71.70;;;;;;5053112;28;19920;-85
2023/04/11 00:49:27;;;;;;;;;;;15.70;71.70;;;;;;5052847;28;19913;-85
2023/04/11 00:51:53;;;;;;;;;;;15.70;71.70;;;;;;5053037;28;19912;-85
2023/04/11 00:54:19;;;;;;;;;;;15.70;71.80;;;;;;5055173;28;20011;-85
2023/04/11 00:56:44;;;;;;;;;;;15.70;71.80;;;;;;5056058;28;20191;-85
2023/04/11 00:59:10;;;;;;;;;;;15.70;71.80;;;;;;5053950;28;19909;-85
2023/04/11 01:01:37;;;;;;;;;;;15.70;71.90;;;;;;5052965;28;19935;-86
2023/04/11 01:04:02;;;;;;;;;;;15.70;71.90;;;;;;5053612;28;19939;-86
2023/04/11 01:06:29;;;;;;;;;;;15.70;72.10;;;;;;5051125;28;20192;-85
2023/04/11 01:08:55;;;;;;;;;;;15.70;72.10;;;;;;5053679;28;20155;-85
2023/04/11 01:11:20;;;;;;;;;;;15.70;72.10;;;;;;5052472;28;19967;-85
2023/04/11 01:13:47;;;;;;;;;;;15.70;72.10;;;;;;5051599;28;20205;-85
2023/04/11 01:16:14;;;;;;;;;;;15.70;72.20;;;;;;5051563;28;19909;-85
2023/04/11 01:18:39;;;;;;;;;;;15.70;72.30;;;;;;5053199;28;20152;-85
2023/04/11 01:21:05;;;;;;;;;;;15.70;72.30;;;;;;5053272;28;19909;-85
2023/04/11 01:23:33;;;;;;;;;;;15.70;72.30;;;;;;5053114;28;19909;-85
2023/04/11 01:25:59;;;;;;;;;;;15.60;72.40;;;;;;5053838;28;19909;-85
2023/04/11 01:28:24;;;;;;;;;;;15.60;72.40;;;;;;5055059;28;19913;-85
2023/04/11 01:30:50;;;;;;;;;;;15.70;72.50;;;;;;5055611;28;19982;-85
2023/04/11 01:33:15;;;;;;;;;;;15.60;72.60;;;;;;5055265;28;19917;-85
2023/04/11 01:35:41;;;;;;;;;;;15.70;72.60;;;;;;5050455;28;20172;-85
2023/04/11 01:38:07;;;;;;;;;;;15.70;72.70;;;;;;5055832;28;20011;-85
2023/04/11 01:40:33;;;;;;;;;;;15.60;72.70;;;;;;5059562;28;20000;-85
2023/04/11 01:43:00;;;;;;;;;;;15.60;72.70;;;;;;5060013;28;19919;-85
2023/04/11 01:45:26;;;;;;;;;;;15.60;72.70;;;;;;5058723;28;19920;-85
2023/04/11 01:47:55;;;;;;;;;;;15.60;72.70;;;;;;5059172;28;19909;-85
2023/04/11 01:50:20;;;;;;;;;;;15.60;72.80;;;;;;5059264;28;20015;-85
2023/04/11 01:52:49;;;;;;;;;;;15.60;72.80;;;;;;5059119;28;19999;-86
2023/04/11 01:55:15;;;;;;;;;;;15.60;72.90;;;;;;5059953;28;20007;-85
2023/04/11 01:57:41;;;;;;;;;;;15.60;73.10;;;;;;5058215;28;19995;-85
2023/04/11 02:00:10;;;;;;;;;;;15.60;73.20;;;;;;5055990;28;20263;-85
2023/04/11 02:02:36;;;;;;;;;;;15.60;73.30;;;;;;5056756;28;19970;-85
2023/04/11 02:05:02;;;;;;;;;;;15.60;73.30;;;;;;5057353;28;19940;-86
2023/04/11 02:07:28;;;;;;;;;;;15.60;73.30;;;;;;5055874;28;19963;-86
2023/04/11 02:09:55;;;;;;;;;;;15.60;73.40;;;;;;5055793;28;19909;-85
2023/04/11 02:12:20;;;;;;;;;;;15.60;73.50;;;;;;5055292;28;20289;-86
2023/04/11 02:14:46;;;;;;;;;;;15.60;73.50;;;;;;5058816;28;19955;-86
2023/04/11 02:17:11;;;;;;;;;;;15.60;73.60;;;;;;5058344;28;19916;-86
2023/04/11 02:19:39;;;;;;;;;;;15.60;73.70;;;;;;5057953;28;19959;-86
2023/04/11 02:22:06;;;;;;;;;;;15.60;73.80;;;;;;5057920;28;19909;-86
2023/04/11 02:24:32;;;;;;;;;;;15.50;73.80;;;;;;5057439;28;19908;-86
2023/04/11 02:26:58;;;;;;;;;;;15.60;73.90;;;;;;5057404;28;20068;-86
2023/04/11 02:29:24;;;;;;;;;;;15.60;74.60;;;;;;5056613;28;19999;-86
2023/04/11 02:31:50;;;;;;;;;;;15.50;74.00;;;;;;5056639;28;20039;-86
2023/04/11 02:34:15;;;;;;;;;;;15.50;74.00;;;;;;5055793;28;20331;-86
2023/04/11 02:36:42;;;;;;;;;;;15.50;74.00;;;;;;5055808;28;19909;-86
2023/04/11 02:39:09;;;;;;;;;;;15.50;74.00;;;;;;5056338;28;20330;-86
2023/04/11 02:41:37;;;;;;;;;;;15.50;74.10;;;;;;5056232;28;19919;-87
2023/04/11 02:44:03;;;;;;;;;;;15.50;74.10;;;;;;5055917;28;20048;-86
2023/04/11 02:46:28;;;;;;;;;;;15.50;74.20;;;;;;5055854;28;19909;-86
2023/04/11 02:48:54;;;;;;;;;;;15.50;74.20;;;;;;5054553;28;20191;-86
2023/04/11 02:51:20;;;;;;;;;;;15.50;74.20;;;;;;5055502;28;19956;-86
2023/04/11 02:53:45;;;;;;;;;;;15.50;74.20;;;;;;5056738;28;19948;-86
2023/04/11 02:56:12;;;;;;;;;;;15.50;74.30;;;;;;5056214;28;19908;-86
2023/04/11 02:58:40;;;;;;;;;;;15.50;74.30;;;;;;5057089;28;19924;-86
2023/04/11 03:01:06;;;;;;;;;;;15.50;74.30;;;;;;5057303;28;19909;-86
2023/04/11 03:03:32;;;;;;;;;;;15.50;74.40;;;;;;5056630;28;19916;-85
2023/04/11 03:05:58;;;;;;;;;;;15.50;74.50;;;;;;5056276;28;19909;-86
2023/04/11 03:08:24;;;;;;;;;;;15.50;74.40;;;;;;5057112;28;20349;-86
2023/04/11 03:10:49;;;;;;;;;;;15.50;74.50;;;;;;5056303;28;19911;-86
2023/04/11 03:13:15;;;;;;;;;;;15.50;74.60;;;;;;5058129;28;19975;-86
2023/04/11 03:15:40;;;;;;;;;;;15.50;74.70;;;;;;5057890;28;19955;-87
2023/04/11 03:18:06;;;;;;;;;;;15.50;74.90;;;;;;5057108;28;19959;-86
2023/04/11 03:20:32;;;;;;;;;;;15.50;74.80;;;;;;5054802;28;19915;-86
2023/04/11 03:22:57;;;;;;;;;;;15.50;74.90;;;;;;5056784;28;19909;-85
2023/04/11 03:25:23;;;;;;;;;;;15.40;74.90;;;;;;5056095;28;19916;-86
2023/04/11 03:27:48;;;;;;;;;;;15.40;75.00;;;;;;5056581;28;19924;-86
2023/04/11 03:30:14;;;;;;;;;;;15.40;75.10;;;;;;5055841;28;19921;-86
2023/04/11 03:32:40;;;;;;;;;;;15.40;75.10;;;;;;5055103;28;19928;-85
2023/04/11 03:35:05;;;;;;;;;;;15.40;75.30;;;;;;5054931;28;19909;-86
2023/04/11 03:37:31;;;;;;;;;;;15.40;75.20;;;;;;5055194;28;20446;-86
2023/04/11 03:39:57;;;;;;;;;;;15.40;75.40;;;;;;5054733;28;19908;-86
2023/04/11 03:42:22;;;;;;;;;;;15.40;75.40;;;;;;5054492;28;19909;-86
2023/04/11 03:44:48;;;;;;;;;;;15.40;75.60;;;;;;5055446;28;19935;-86
2023/04/11 03:47:14;;;;;;;;;;;15.40;75.50;;;;;;5056040;28;19978;-85
2023/04/11 03:49:39;;;;;;;;;;;15.40;75.70;;;;;;5055290;28;19910;-86
2023/04/11 03:52:06;;;;;;;;;;;15.40;75.80;;;;;;5053315;28;19948;-86
2023/04/11 03:54:31;;;;;;;;;;;15.40;75.80;;;;;;5054163;28;20007;-86
2023/04/11 03:56:57;;;;;;;;;;;15.40;75.70;;;;;;5054907;28;20436;-85
2023/04/11 03:59:23;;;;;;;;;;;15.40;75.80;;;;;;5054022;28;19924;-86
2023/04/11 04:01:48;;;;;;;;;;;15.30;75.70;;;;;;5053195;28;19913;-86
2023/04/11 04:04:14;;;;;;;;;;;15.40;75.90;;;;;;5054516;28;20379;-86
2023/04/11 04:06:40;;;;;;;;;;;15.30;75.90;;;;;;5054914;28;19908;-86
2023/04/11 04:09:05;;;;;;;;;;;15.30;75.90;;;;;;5054949;28;20046;-85
2023/04/11 04:11:31;;;;;;;;;;;15.30;76.00;;;;;;5055081;28;20380;-86
2023/04/11 04:13:57;;;;;;;;;;;15.30;76.00;;;;;;5054834;28;19915;-85
2023/04/11 04:16:22;;;;;;;;;;;15.30;76.10;;;;;;5054244;28;19909;-85
2023/04/11 04:18:48;;;;;;;;;;;15.30;76.10;;;;;;5054342;28;20201;-86
2023/04/11 04:21:14;;;;;;;;;;;15.30;76.20;;;;;;5053322;28;20233;-86
2023/04/11 04:23:46;;;;;;;;;;;15.30;76.20;;;;;;5054004;28;19992;-86
2023/04/11 04:26:23;;;;;;;;;;;15.30;76.20;;;;;;5053706;28;19948;-86
2023/04/11 04:28:49;;;;;;;;;;;15.30;76.40;;;;;;5053220;28;19995;-86
2023/04/11 04:31:20;;;;;;;;;;;15.30;76.40;;;;;;5053298;28;20019;-86
2023/04/11 04:33:48;;;;;;;;;;;15.30;76.40;;;;;;5053259;28;19928;-85
2023/04/11 04:36:16;;;;;;;;;;;15.30;76.50;;;;;;5054947;28;19908;-86
2023/04/11 04:38:46;;;;;;;;;;;15.20;76.50;;;;;;5053276;28;19909;-85
2023/04/11 04:41:15;;;;;;;;;;;15.30;76.60;;;;;;5053345;28;19916;-86
2023/04/11 04:43:43;;;;;;;;;;;15.30;76.60;;;;;;5052287;28;20286;-86
2023/04/11 04:46:09;;;;;;;;;;;15.30;76.80;;;;;;5052415;28;19947;-86
2023/04/11 04:48:35;;;;;;;;;;;15.30;76.90;;;;;;5051258;28;20262;-86
2023/04/11 04:51:02;;;;;;;;;;;15.30;76.70;;;;;;5050575;28;19923;-87
2023/04/11 04:53:27;;;;;;;;;;;15.30;76.70;;;;;;5052307;28;19916;-86
2023/04/11 04:55:52;;;;;;;;;;;15.20;76.70;;;;;;5049852;28;19977;-86
2023/04/11 04:58:18;;;;;;;;;;;15.20;76.70;;;;;;5050294;28;19920;-86
2023/04/11 05:00:54;;;;;;;;;;;15.20;76.70;;;;;;5052384;28;19909;-88
2023/04/11 05:03:20;;;;;;;;;;;15.20;76.70;;;;;;5051556;28;19948;-87
2023/04/11 05:05:45;;;;;;;;;;;15.20;76.70;;;;;;5049524;28;20202;-87
2023/04/11 05:08:11;;;;;;;;;;;15.30;76.80;;;;;;5049091;28;20011;-87
2023/04/11 05:10:37;;;;;;;;;;;15.20;76.80;;;;;;5048884;28;20202;-87
2023/04/11 05:13:02;;;;;;;;;;;15.20;77.40;;;;;;5048160;28;20024;-88
2023/04/11 05:15:28;;;;;;;;;;;15.30;76.80;;;;;;5048015;28;20262;-88
2023/04/11 05:17:53;;;;;;;;;;;15.20;76.70;;;;;;5050112;28;20225;-87
2023/04/11 05:20:19;;;;;;;;;;;15.30;76.60;;;;;;5056926;28;19913;-87
2023/04/11 05:22:46;;;;;;;;;;;15.20;76.70;;;;;;5049217;28;20428;-88
2023/04/11 05:25:12;;;;;;;;;;;15.30;76.60;;;;;;5049413;28;20302;-87
2023/04/11 05:27:37;;;;;;;;;;;15.20;76.60;;;;;;5049146;28;19912;-87
2023/04/11 05:30:03;;;;;;;;;;;15.30;76.60;;;;;;5048007;28;19917;-87
2023/04/11 05:32:28;;;;;;;;;;;15.30;76.50;;;;;;5048494;28;20007;-87
2023/04/11 05:34:55;;;;;;;;;;;15.30;76.40;;;;;;5047151;28;19923;-87
2023/04/11 05:37:20;;;;;;;;;;;15.30;76.30;;;;;;5047609;28;19958;-87
2023/04/11 05:39:46;;;;;;;;;;;15.30;76.20;;;;;;5049308;28;20271;-88
2023/04/11 05:42:12;;;;;;;;;;;15.30;76.20;;;;;;5047581;28;20169;-87
2023/04/11 05:44:39;;;;;;;;;;;15.30;76.10;;;;;;5048794;28;19917;-87
2023/04/11 05:47:04;;;;;;;;;;;15.40;76.00;;;;;;5046391;28;20194;-87
2023/04/11 05:49:30;;;;;;;;;;;15.50;75.80;;;;;;5046999;28;20092;-88
2023/04/11 05:51:55;;;;;;;;;;;15.60;75.30;;;;;;5046116;28;19923;-87
2023/04/11 05:54:35;;;;;;;;;;;15.60;74.80;;;;;;5045579;28;20203;-87
2023/04/11 05:57:01;;;;;;;;;;;15.70;74.60;;;;;;5044008;28;19909;-88
2023/04/11 05:59:27;;;;;;;;;;;15.60;74.20;;;;;;5045377;28;19909;-87
2023/04/11 06:01:53;;;;;;;;;;;15.60;74.40;;;;;;5044167;28;19937;-88
2023/04/11 06:04:19;;;;;;;;;;;15.60;74.50;;;;;;5047518;28;20284;-88
2023/04/11 06:06:45;;;;;;;;;;;15.80;74.30;;;;;;5046632;28;20388;-88
2023/04/11 06:09:11;;;;;;;;;;;16.00;73.40;;;;;;5048279;28;19975;-88
2023/04/11 06:11:36;;;;;;;;;;;16.20;72.60;;;;;;5049735;28;20237;-88
2023/04/11 06:14:03;;;;;;;;;;;16.40;71.50;;;;;;5048470;28;20263;-88
2023/04/11 06:16:31;;;;;;;;;;;16.40;72.10;;;;;;5048184;28;19963;-88
2023/04/11 06:18:56;;;;;;;;;;;16.30;72.50;;;;;;5046049;28;19908;-88
2023/04/11 06:21:22;;;;;;;;;;;16.20;72.90;;;;;;5046798;28;19913;-88
2023/04/11 06:23:47;;;;;;;;;;;16.20;73.60;;;;;;5047413;28;19916;-88
2023/04/11 06:26:13;;;;;;;;;;;16.10;73.90;;;;;;5054244;28;20010;-88
2023/04/11 06:28:39;;;;;;;;;;;16.10;74.50;;;;;;5050370;28;19935;-88
2023/04/11 06:31:07;;;;;;;;;;;16.00;75.20;;;;;;5050207;28;20030;-89
2023/04/11 06:33:32;;;;;;;;;;;16.00;75.60;;;;;;5049080;28;19917;-89
2023/04/11 06:35:58;;;;;;;;;;;16.00;75.90;;;;;;5049519;28;19909;-88
2023/04/11 06:38:23;;;;;;;;;;;16.00;76.00;;;;;;5047842;28;19908;-88
2023/04/11 06:40:50;;;;;;;;;;;16.10;75.90;;;;;;5047800;28;19915;-89
2023/04/11 06:43:15;;;;;;;;;;;16.10;75.70;;;;;;5046942;28;20011;-89
2023/04/11 06:45:41;;;;;;;;;;;16.30;75.50;;;;;;5048071;28;20015;-89
2023/04/11 06:48:07;;;;;;;;;;;16.80;72.60;;;;;;5048180;28;19909;-89
2023/04/11 06:50:36;;;;;;;;;;;16.70;71.40;;;;;;5047999;28;20184;-89
2023/04/11 06:53:01;;;;;;;;;;;16.80;71.90;;;;;;5048709;28;20556;-89
2023/04/11 06:55:27;;;;;;;;;;;16.80;71.10;;;;;;5048456;28;20198;-89
2023/04/11 06:57:52;;;;;;;;;;;16.80;71.20;;;;;;5047914;28;19919;-89
2023/04/11 07:00:18;;;;;;;;;;;17.60;68.00;;;;;;5046656;28;19924;-90
2023/04/11 07:02:44;;;;;;;;;;;17.50;66.80;;;;;;5049791;28;19916;-89
2023/04/11 07:05:09;;;;;;;;;;;17.30;67.30;;;;;;5049381;28;20083;-89
2023/04/11 07:07:35;;;;;;;;;;;17.90;66.80;;;;;;5048445;28;20085;-89
2023/04/11 07:10:01;;;;;;;;;;;17.70;65.30;;;;;;5048555;28;20208;-89
2023/04/11 07:12:26;;;;;;;;;;;17.50;65.30;;;;;;5046691;28;20032;-89
2023/04/11 07:14:52;;;;;;;;;;;17.40;65.60;;;;;;5046642;28;19916;-90
2023/04/11 07:17:18;;;;;;;;;;;18.60;63.10;;;;;;5046245;28;19920;-90
2023/04/11 07:19:43;;;;;;;;;;;19.40;59.20;;;;;;5046983;28;19924;-90
2023/04/11 07:22:10;;;;;;;;;;;20.10;57.80;;;;;;5048852;28;20232;-90
2023/04/11 07:24:35;;;;;;;;;;;20.40;55.70;;;;;;5050904;28;19909;-90
2023/04/11 07:27:01;;;;;;;;;;;19.90;55.90;;;;;;5048825;28;19908;-90
2023/04/11 07:29:27;;;;;;;;;;;19.40;56.40;;;;;;5047543;28;19909;-89
2023/04/11 07:31:53;;;;;;;;;;;19.10;57.10;;;;;;5047124;28;20278;-90
2023/04/11 07:34:19;;;;;;;;;;;19.30;57.10;;;;;;5048952;28;19924;-90
2023/04/11 07:36:44;;;;;;;;;;;19.50;57.00;;;;;;5047459;28;19959;-90
2023/04/11 07:39:12;;;;;;;;;;;19.90;56.10;;;;;;5048595;28;19982;-90
2023/04/11 07:41:38;;;;;;;;;;;20.50;54.70;;;;;;5050415;28;19912;-90
2023/04/11 07:44:06;;;;;;;;;;;19.80;54.80;;;;;;5049862;28;20261;-90
2023/04/11 07:46:31;;;;;;;;;;;19.50;55.30;;;;;;5049245;28;19920;-90
2023/04/11 07:48:57;;;;;;;;;;;19.60;55.40;;;;;;5048235;28;19909;-90
2023/04/11 07:51:22;;;;;;;;;;;20.40;54.80;;;;;;5047880;28;19912;-89
2023/04/11 07:53:49;;;;;;;;;;;21.20;53.70;;;;;;5047882;28;19937;-90
2023/04/11 07:56:14;;;;;;;;;;;22.00;52.60;;;;;;5046617;28;20003;-88
2023/04/11 07:58:40;;;;;;;;;;;21.30;52.10;;;;;;5047533;28;20012;-89
2023/04/11 08:01:17;;;;;;;;;;;21.10;52.30;;;;;;5044761;28;20229;-89
2023/04/11 08:03:44;;;;;;;;;;;21.40;52.10;;;;;;5043642;28;19915;-89
2023/04/11 08:06:10;;;;;;;;;;;21.40;52.30;;;;;;5046602;28;20003;-90
2023/04/11 08:08:35;;;;;;;;;;;21.60;51.40;;;;;;5048364;28;20161;-90
2023/04/11 08:11:01;;;;;;;;;;;21.90;51.60;;;;;;5047583;28;19909;-91
2023/04/11 08:13:27;;;;;;;;;;;22.10;51.30;;;;;;5047234;28;19919;-89
2023/04/11 08:15:52;;;;;;;;;;;22.30;50.30;;;;;;5046767;28;19947;-92
2023/04/11 08:18:20;;;;;;;;;;;23.40;49.90;;;;;;5046340;28;20213;-90
2023/04/11 08:20:46;;;;;;;;;;;24.10;48.80;;;;;;5046168;28;19912;-89
2023/04/11 08:23:13;;;;;;;;;;;24.70;48.00;;;;;;5046510;28;19909;-90
2023/04/11 08:25:39;;;;;;;;;;;24.80;47.50;;;;;;5048291;28;19991;-89
2023/04/11 08:28:05;;;;;;;;;;;24.70;47.20;;;;;;5043542;28;19990;-89
2023/04/11 08:30:31;;;;;;;;;;;25.30;46.70;;;;;;5044370;28;19909;-91
2023/04/11 08:32:56;;;;;;;;;;;25.30;46.40;;;;;;5044074;28;19917;-89
2023/04/11 08:35:22;;;;;;;;;;;24.60;46.20;;;;;;5046493;28;20278;-90
2023/04/11 08:37:48;;;;;;;;;;;24.20;47.10;;;;;;5045647;28;19909;-89
2023/04/11 08:40:15;;;;;;;;;;;24.00;46.80;;;;;;5043854;28;20334;-91
2023/04/11 08:42:40;;;;;;;;;;;23.10;47.40;;;;;;5044376;28;19969;-89
2023/04/11 08:45:08;;;;;;;;;;;22.20;48.30;;;;;;5043004;28;19909;-89
2023/04/11 08:47:34;;;;;;;;;;;22.20;48.50;;;;;;5044738;28;20327;-91
2023/04/11 08:50:00;;;;;;;;;;;23.20;48.60;;;;;;5046587;28;19990;-90
2023/04/11 08:52:26;;;;;;;;;;;23.10;47.90;;;;;;5046338;28;19917;-90
2023/04/11 08:54:55;;;;;;;;;;;23.20;48.10;;;;;;5044345;28;19909;-89
2023/04/11 08:57:24;;;;;;;;;;;24.00;47.60;;;;;;5046836;28;19908;-89
2023/04/11 08:59:54;;;;;;;;;;;24.60;46.40;;;;;;5047579;28;20399;-90
2023/04/11 09:02:20;;;;;;;;;;;24.00;46.80;;;;;;5045539;28;19959;-90
2023/04/11 09:04:46;;;;;;;;;;;23.20;47.10;;;;;;5045985;28;20019;-89
2023/04/11 09:07:15;;;;;;;;;;;24.60;46.90;;;;;;5048045;28;20062;-90
2023/04/11 09:09:42;;;;;;;;;;;25.40;45.80;;;;;;5045898;28;20095;-89
2023/04/11 09:12:08;;;;;;;;;;;24.50;46.00;;;;;;5045620;28;19923;-92
2023/04/11 09:14:33;;;;;;;;;;;24.20;46.10;;;;;;5045377;28;19908;-90
2023/04/11 09:17:00;;;;;;;;;;;23.40;46.50;;;;;;5044752;28;19909;-90
2023/04/11 09:19:30;;;;;;;;;;;23.20;47.10;;;;;;5059357;28;19974;-90
2023/04/11 09:21:59;;;;;;;;;;;24.10;47.10;;;;;;5047578;28;19952;-89
2023/04/11 09:24:25;;;;;;;;;;;24.20;46.70;;;;;;5046516;28;19916;-90
2023/04/11 09:27:04;;;;;;;;;;;24.10;46.30;;;;;;5046045;28;20391;-89
2023/04/11 09:29:37;;;;;;;;;;;24.00;46.40;;;;;;5046146;28;20019;-89
2023/04/11 09:32:03;;;;;;;;;;;24.00;46.20;;;;;;5046686;28;19940;-90
2023/04/11 09:34:28;;;;;;;;;;;24.10;46.30;;;;;;5046560;28;19909;-90
2023/04/11 09:36:54;;;;;;;;;;;25.50;45.40;;;;;;5045774;28;19920;-90
2023/04/11 09:39:27;;;;;;;;;;;26.40;44.50;;;;;;5045164;28;20194;-91
2023/04/11 09:41:52;;;;;;;;;;;27.10;43.70;;;;;;5046510;28;19917;-92
2023/04/11 09:44:19;;;;;;;;;;;27.20;43.10;;;;;;5047985;28;20088;-92
2023/04/11 09:46:55;;;;;;;;;;;25.90;43.10;;;;;;5048807;28;19924;-91
2023/04/11 09:49:23;;;;;;;;;;;25.40;43.60;;;;;;5047343;28;19909;-89
2023/04/11 09:51:50;;;;;;;;;;;26.60;43.40;;;;;;5047160;28;20371;-88
2023/04/11 09:54:15;;;;;;;;;;;26.00;42.90;;;;;;5046517;28;20378;-90
2023/04/11 09:56:41;;;;;;;;;;;24.60;43.60;;;;;;5046600;28;19919;-89
2023/04/11 09:59:08;;;;;;;;;;;24.00;44.60;;;;;;5046796;28;20333;-90
2023/04/11 10:01:34;;;;;;;;;;;23.50;45.60;;;;;;5050332;28;19920;-89
2023/04/11 10:04:00;;;;;;;;;;;24.50;45.30;;;;;;5046980;28;19909;-88
2023/04/11 10:06:37;;;;;;;;;;;23.80;45.40;;;;;;5046607;28;20381;-88
2023/04/11 10:09:08;;;;;;;;;;;23.60;45.50;;;;;;5048894;28;19924;-88
2023/04/11 10:11:34;;;;;;;;;;;23.80;45.30;;;;;;5049951;28;19924;-90
2023/04/11 10:14:00;;;;;;;;;;;23.60;45.10;;;;;;5051384;28;19919;-90
2023/04/11 10:16:27;;;;;;;;;;;23.40;45.10;;;;;;5048937;28;20027;-89
2023/04/11 10:18:52;;;;;;;;;;;23.10;45.40;;;;;;5049007;28;19909;-89
2023/04/11 10:21:29;;;;;;;;;;;22.50;46.00;;;;;;5047394;28;19939;-90
2023/04/11 10:24:10;;;;;;;;;;;22.00;46.70;;;;;;5047942;28;19996;-90
2023/04/11 10:26:49;;;;;;;;;;;21.60;47.10;;;;;;5044899;28;19935;-89
2023/04/11 10:29:27;;;;;;;;;;;21.30;47.60;;;;;;5048262;28;19948;-90
2023/04/11 10:32:12;;;;;;;;;;;21.00;47.90;;;;;;5049050;28;19970;-90
2023/04/11 10:34:39;;;;;;;;;;;20.90;48.20;;;;;;5048310;28;19928;-90
2023/04/11 10:37:19;;;;;;;;;;;20.70;48.40;;;;;;5052084;28;20089;-90
2023/04/11 10:39:51;;;;;;;;;;;20.50;48.60;;;;;;5051619;28;19944;-90
2023/04/11 10:42:26;;;;;;;;;;;20.50;48.80;;;;;;5049292;28;19913;-90
2023/04/11 10:45:24;;;;;;;;;;;20.40;49.00;;;;;;5051426;28;20043;-89
2023/04/11 10:47:59;;;;;;;;;;;20.30;49.00;;;;;;5028535;28;19968;-90
2023/04/11 10:50:30;;;;;;;;;;;20.20;49.20;;;;;;5052193;28;19916;-91
2023/04/11 10:53:00;;;;;;;;;;;20.10;49.20;;;;;;5049560;28;19940;-90
2023/04/11 10:55:28;;;;;;;;;;;20.10;49.20;;;;;;5049753;28;20094;-90
2023/04/11 10:58:07;;;;;;;;;;;20.00;49.10;;;;;;5047432;28;20103;-90
2023/04/11 11:00:51;;;;;;;;;;;19.90;49.00;;;;;;5047486;28;20128;-89
2023/04/11 11:03:18;;;;;;;;;;;19.90;49.10;;;;;;5048840;28;19913;-90
2023/04/11 11:05:44;;;;;;;;;;;19.90;49.20;;;;;;5049199;28;19909;-89
2023/04/11 11:08:09;;;;;;;;;;;19.90;49.20;;;;;;5047571;28;19912;-90
2023/04/11 11:10:35;;;;;;;;;;;19.90;49.30;;;;;;5048196;28;19916;-90
2023/04/11 11:13:04;;;;;;;;;;;19.80;49.20;;;;;;5048158;28;19913;-89
2023/04/11 11:15:36;;;;;;;;;;;19.80;49.20;;;;;;5045044;28;20271;-88
2023/04/11 11:18:03;;;;;;;;;;;19.70;49.10;;;;;;5049681;28;19916;-91
2023/04/11 11:20:29;;;;;;;;;;;19.70;49.60;;;;;;5048359;28;19916;-89
2023/04/11 11:23:01;;;;;;;;;;;19.70;49.30;;;;;;5046757;28;19909;-88
2023/04/11 11:25:27;;;;;;;;;;;19.60;49.20;;;;;;5047475;28;19909;-88
2023/04/11 11:28:02;;;;;;;;;;;19.60;49.40;;;;;;5047194;28;20072;-89
2023/04/11 11:30:27;;;;;;;;;;;19.60;49.40;;;;;;5046798;28;19909;-88
2023/04/11 11:32:54;;;;;;;;;;;19.50;49.40;;;;;;5045222;28;19916;-89
2023/04/11 11:35:19;;;;;;;;;;;19.50;49.40;;;;;;5042839;28;20274;-88
2023/04/11 11:37:45;;;;;;;;;;;19.50;49.50;;;;;;5044908;28;19916;-89
2023/04/11 11:40:13;;;;;;;;;;;19.40;49.50;;;;;;5044776;28;19912;-90
2023/04/11 11:42:40;;;;;;;;;;;19.40;49.60;;;;;;5044608;28;19908;-89
2023/04/11 11:45:19;;;;;;;;;;;19.40;49.90;;;;;;5043562;28;19974;-89
2023/04/11 11:47:45;;;;;;;;;;;19.40;50.00;;;;;;5047695;28;20015;-91
2023/04/11 11:50:11;;;;;;;;;;;19.30;50.00;;;;;;5045677;28;19931;-89
2023/04/11 11:52:40;;;;;;;;;;;19.30;50.10;;;;;;5042832;28;19955;-90
2023/04/11 11:55:26;;;;;;;;;;;19.30;50.30;;;;;;5044707;28;20065;-92
2023/04/11 11:57:52;;;;;;;;;;;19.30;50.30;;;;;;5042901;28;19909;-90
2023/04/11 12:00:25;;;;;;;;;;;19.30;50.50;;;;;;5046878;28;19962;-90
2023/04/11 12:02:51;;;;;;;;;;;19.20;50.50;;;;;;5046897;28;19952;-90
2023/04/11 12:05:17;;;;;;;;;;;19.20;50.70;;;;;;5046081;28;19912;-90
2023/04/11 12:07:42;;;;;;;;;;;19.20;50.70;;;;;;5044493;28;19989;-89
2023/04/11 12:10:12;;;;;;;;;;;19.10;50.70;;;;;;5044489;28;20261;-89
2023/04/11 12:12:38;;;;;;;;;;;19.10;51.00;;;;;;5045304;28;19995;-89
2023/04/11 12:15:11;;;;;;;;;;;19.10;51.00;;;;;;5047682;28;19919;-88
2023/04/11 12:17:36;;;;;;;;;;;19.10;51.10;;;;;;5045424;28;20328;-88
2023/04/11 12:20:09;;;;;;;;;;;19.10;51.10;;;;;;5041188;28;20291;-89
2023/04/11 12:22:35;;;;;;;;;;;19.00;51.10;;;;;;5041875;28;20160;-90
2023/04/11 12:25:11;;;;;;;;;;;19.00;51.30;;;;;;5041120;28;19916;-88
2023/04/11 12:27:37;;;;;;;;;;;19.00;51.40;;;;;;5043861;28;20056;-89
2023/04/11 12:30:03;;;;;;;;;;;19.00;51.50;;;;;;5043180;28;20194;-88
2023/04/11 12:32:28;;;;;;;;;;;19.00;51.50;;;;;;5041918;28;19917;-87
2023/04/11 12:34:54;;;;;;;;;;;19.00;51.60;;;;;;5054447;28;19928;-88
2023/04/11 12:37:25;;;;;;;;;;;19.00;51.50;;;;;;5049193;28;19920;-89
2023/04/11 12:39:51;;;;;;;;;;;19.00;51.20;;;;;;5045186;28;20205;-88
2023/04/11 12:42:17;;;;;;;;;;;19.00;51.70;;;;;;5044810;28;20058;-88
2023/04/11 12:44:42;;;;;;;;;;;19.00;51.70;;;;;;5042975;28;19919;-88
2023/04/11 12:47:08;;;;;;;;;;;19.00;51.70;;;;;;5044858;28;19909;-88
2023/04/11 12:49:34;;;;;;;;;;;18.90;51.70;;;;;;5044565;28;19909;-88
2023/04/11 12:52:00;;;;;;;;;;;18.90;51.70;;;;;;5044358;28;20067;-88
2023/04/11 12:54:25;;;;;;;;;;;18.90;51.80;;;;;;5046553;28;19936;-88
2023/04/11 12:56:51;;;;;;;;;;;18.90;51.90;;;;;;5047243;28;20168;-91
2023/04/11 12:59:16;;;;;;;;;;;18.90;51.80;;;;;;5045763;28;20198;-88
2023/04/11 13:01:42;;;;;;;;;;;18.90;52.00;;;;;;5044965;28;19920;-89
2023/04/11 13:04:09;;;;;;;;;;;18.80;51.90;;;;;;5045424;28;19919;-90
2023/04/11 13:06:36;;;;;;;;;;;18.80;52.00;;;;;;5046032;28;20317;-89
2023/04/11 13:09:03;;;;;;;;;;;18.80;52.00;;;;;;5045966;28;19916;-88
2023/04/11 13:11:28;;;;;;;;;;;18.80;52.10;;;;;;5044620;28;20204;-88
2023/04/11 13:13:54;;;;;;;;;;;18.80;52.00;;;;;;5045558;28;20301;-88
2023/04/11 13:16:20;;;;;;;;;;;18.80;52.10;;;;;;5047061;28;19909;-89
2023/04/11 13:18:45;;;;;;;;;;;18.70;52.10;;;;;;5044742;28;19908;-89
2023/04/11 13:21:12;;;;;;;;;;;18.70;52.20;;;;;;5046504;28;19971;-89
2023/04/11 13:23:37;;;;;;;;;;;18.70;52.30;;;;;;5045945;28;19910;-89
2023/04/11 13:26:03;;;;;;;;;;;18.70;52.30;;;;;;5044677;28;20318;-89
2023/04/11 13:28:29;;;;;;;;;;;18.70;52.40;;;;;;5046038;28;19917;-89
2023/04/11 13:30:55;;;;;;;;;;;18.60;52.40;;;;;;5045077;28;20233;-90
2023/04/11 13:33:21;;;;;;;;;;;18.60;52.50;;;;;;5043311;28;19943;-89
2023/04/11 13:35:46;;;;;;;;;;;18.60;52.50;;;;;;5047803;28;20340;-89
2023/04/11 13:38:12;;;;;;;;;;;18.60;52.60;;;;;;5048301;28;19919;-90
2023/04/11 13:40:40;;;;;;;;;;;18.60;52.70;;;;;;5047186;28;19909;-90
2023/04/11 13:43:05;;;;;;;;;;;18.60;52.70;;;;;;5046496;28;19909;-91
2023/04/11 13:45:31;;;;;;;;;;;18.60;52.70;;;;;;5046847;28;19912;-90
2023/04/11 13:47:56;;;;;;;;;;;18.60;52.80;;;;;;5046193;28;20012;-89
2023/04/11 13:50:22;;;;;;;;;;;18.60;52.90;;;;;;5046957;28;19962;-91
2023/04/11 13:52:48;;;;;;;;;;;18.60;53.00;;;;;;5046297;28;19951;-90
2023/04/11 13:55:14;;;;;;;;;;;18.60;53.00;;;;;;5043537;28;19908;-89
2023/04/11 13:57:40;;;;;;;;;;;18.50;53.00;;;;;;5044725;28;20386;-91
2023/04/11 14:00:12;;;;;;;;;;;18.50;53.10;;;;;;5044258;28;19909;-91
2023/04/11 14:02:38;;;;;;;;;;;18.50;53.00;;;;;;5046956;28;19917;-90
2023/04/11 14:05:04;;;;;;;;;;;18.50;53.10;;;;;;5048016;28;19916;-90
2023/04/11 14:07:30;;;;;;;;;;;18.50;53.20;;;;;;5047346;28;19908;-89
2023/04/11 14:09:55;;;;;;;;;;;18.50;53.20;;;;;;5047606;28;20132;-90
2023/04/11 14:12:21;;;;;;;;;;;18.40;53.20;;;;;;5046671;28;19924;-91
2023/04/11 14:14:46;;;;;;;;;;;18.40;53.30;;;;;;5048444;28;19919;-91